createdAt,value
2022-08-05T00:01:35.532Z,100.00
2022-08-05T00:04:08.418Z,100.00
2022-08-05T00:06:37.223Z,100.00
2022-08-05T00:09:12.945Z,100.00
2022-08-05T00:11:48.293Z,100.00
2022-08-05T00:14:19.657Z,100.00
2022-08-05T00:16:52.398Z,100.00
2022-08-05T00:19:21.584Z,100.00
2022-08-05T00:21:50.748Z,100.00
2022-08-05T00:24:24.726Z,100.00
2022-08-05T00:26:53.403Z,100.00
2022-08-05T00:29:22.743Z,100.00
2022-08-05T00:32:10.576Z,100.00
2022-08-05T00:34:55.795Z,100.00
2022-08-05T00:37:50.856Z,100.00
2022-08-05T00:40:28.252Z,100.00
2022-08-05T00:42:58.491Z,100.00
2022-08-05T00:45:38.716Z,100.00
2022-08-05T00:48:12.393Z,100.00
2022-08-05T00:50:42.037Z,100.00
2022-08-05T00:54:01.162Z,100.00
2022-08-05T00:56:02.505Z,100.00
2022-08-05T00:58:30.499Z,100.00
2022-08-05T01:00:58.683Z,100.00
2022-08-05T01:03:30.847Z,100.00
2022-08-05T01:06:01.564Z,100.00
2022-08-05T01:08:42.853Z,100.00
2022-08-05T01:11:22.283Z,100.00
2022-08-05T01:14:03.105Z,100.00
2022-08-05T01:16:34.133Z,100.00
2022-08-05T01:19:16.226Z,100.00
2022-08-05T01:22:18.988Z,100.00
2022-08-05T01:25:07.699Z,100.00
2022-08-05T01:28:06.114Z,100.00
2022-08-05T01:30:39.539Z,100.00
2022-08-05T01:33:09.489Z,100.00
2022-08-05T01:35:50.607Z,100.00
2022-08-05T01:38:24.911Z,100.00
2022-08-05T01:40:59.354Z,100.00
2022-08-05T01:43:29.282Z,100.00
2022-08-05T01:45:59.995Z,100.00
2022-08-05T01:48:36.740Z,100.00
2022-08-05T01:51:12.127Z,100.00
2022-08-05T01:53:56.914Z,100.00
2022-08-05T01:58:10.631Z,100.00
2022-08-05T01:59:21.410Z,100.00
2022-08-05T02:01:51.217Z,100.00
2022-08-05T02:04:23.811Z,100.00
2022-08-05T02:06:53.790Z,100.00
2022-08-05T02:09:22.095Z,100.00
2022-08-05T02:11:57.350Z,100.00
2022-08-05T02:14:31.862Z,100.00
2022-08-05T02:17:05.341Z,100.00
2022-08-05T02:19:47.403Z,100.00
2022-08-05T02:22:26.512Z,100.00
2022-08-05T02:25:08.182Z,100.00
2022-08-05T02:27:58.224Z,100.00
2022-08-05T02:30:34.503Z,100.00
2022-08-05T02:33:03.683Z,100.00
2022-08-05T02:35:38.564Z,100.00
2022-08-05T02:38:20.051Z,100.00
2022-08-05T02:40:55.037Z,100.00
2022-08-05T02:43:23.842Z,100.00
2022-08-05T02:45:54.502Z,100.00
2022-08-05T02:48:29.096Z,100.00
2022-08-05T02:50:59.402Z,100.00
2022-08-05T02:53:27.682Z,100.00
2022-08-05T02:56:01.074Z,100.00
2022-08-05T02:58:30.798Z,100.00
2022-08-05T03:01:02.835Z,100.00
2022-08-05T03:03:33.708Z,100.00
2022-08-05T03:06:54.335Z,100.00
2022-08-05T03:09:09.540Z,100.00
2022-08-05T03:11:54.522Z,100.00
2022-08-05T03:14:26.252Z,100.00
2022-08-05T03:16:55.695Z,100.00
2022-08-05T03:19:33.776Z,100.00
2022-08-05T03:22:04.837Z,100.00
2022-08-05T03:24:44.648Z,100.00
2022-08-05T03:27:15.929Z,100.00
2022-08-05T03:29:45.200Z,100.00
2022-08-05T03:32:33.799Z,100.00
2022-08-05T03:35:04.464Z,100.00
2022-08-05T03:37:40.994Z,100.00
2022-08-05T03:40:15.384Z,100.00
2022-08-05T03:42:52.944Z,100.00
2022-08-05T03:45:23.298Z,100.00
2022-08-05T03:47:57.032Z,100.00
2022-08-05T03:50:26.857Z,100.00
2022-08-05T03:55:49.715Z,100.00
2022-08-05T03:56:10.299Z,100.00
2022-08-05T03:58:47.451Z,100.00
2022-08-05T04:01:21.139Z,100.00
2022-08-05T04:04:09.228Z,100.00
2022-08-05T04:06:47.472Z,100.00
2022-08-05T04:09:26.013Z,100.00
2022-08-05T04:11:56.459Z,100.00
2022-08-05T04:14:30.024Z,100.00
2022-08-05T04:16:59.473Z,100.00
2022-08-05T04:19:29.239Z,100.00
2022-08-05T04:22:08.359Z,100.00
2022-08-05T04:24:38.751Z,100.00
2022-08-05T04:27:13.855Z,100.00
2022-08-05T04:29:43.476Z,100.00
2022-08-05T04:32:11.747Z,100.00
2022-08-05T04:34:43.215Z,100.00
2022-08-05T04:37:11.622Z,100.00
2022-08-05T04:39:40.870Z,100.00
2022-08-05T04:42:10.028Z,100.00
2022-08-05T04:44:38.972Z,100.00
2022-08-05T04:47:18.720Z,100.00
2022-08-05T04:50:02.733Z,100.00
2022-08-05T04:52:37.691Z,100.00
2022-08-05T04:55:14.944Z,100.00
2022-08-05T04:57:47.767Z,100.00
2022-08-05T05:00:16.958Z,100.00
2022-08-05T05:02:45.014Z,100.00
2022-08-05T05:05:16.611Z,100.00
2022-08-05T05:07:56.495Z,100.00
2022-08-05T05:10:29.606Z,100.00
2022-08-05T05:12:57.979Z,100.00
2022-08-05T05:15:56.689Z,100.00
2022-08-05T05:18:15.303Z,100.00
2022-08-05T05:20:58.507Z,100.00
2022-08-05T05:23:26.683Z,100.00
2022-08-05T05:25:54.614Z,100.00
2022-08-05T05:28:24.863Z,100.00
2022-08-05T05:30:52.925Z,100.00
2022-08-05T05:33:23.387Z,96.46
2022-08-05T05:35:51.818Z,93.34
2022-08-05T05:38:27.163Z,91.91
2022-08-05T05:40:56.374Z,89.91
2022-08-05T05:43:57.193Z,89.54
2022-08-05T05:46:15.935Z,86.65
2022-08-05T05:48:46.102Z,78.74
2022-08-05T05:51:23.225Z,75.17
2022-08-05T05:53:57.624Z,75.45
2022-08-05T05:56:32.708Z,75.00
2022-08-05T05:59:05.326Z,73.12
2022-08-05T06:01:37.506Z,68.01
2022-08-05T06:04:06.967Z,69.15
2022-08-05T06:06:35.499Z,67.67
2022-08-05T06:09:05.492Z,67.22
2022-08-05T06:11:35.520Z,66.73
2022-08-05T06:14:07.433Z,63.25
2022-08-05T06:16:37.339Z,62.76
2022-08-05T06:19:07.401Z,63.34
2022-08-05T06:21:38.705Z,58.97
2022-08-05T06:24:12.706Z,62.14
2022-08-05T06:26:51.571Z,62.09
2022-08-05T06:29:25.349Z,61.99
2022-08-05T06:32:21.281Z,59.58
2022-08-05T06:34:56.826Z,58.29
2022-08-05T06:37:56.355Z,60.59
2022-08-05T06:40:18.570Z,64.37
2022-08-05T06:42:51.543Z,63.23
2022-08-05T06:45:45.034Z,57.87
2022-08-05T06:48:36.777Z,57.42
2022-08-05T06:50:58.056Z,56.64
2022-08-05T06:53:28.258Z,58.99
2022-08-05T06:55:59.313Z,63.09
2022-08-05T06:58:34.779Z,66.75
2022-08-05T07:01:05.762Z,67.86
2022-08-05T07:03:34.747Z,75.01
2022-08-05T07:06:05.757Z,76.75
2022-08-05T07:08:43.228Z,71.66
2022-08-05T07:11:22.268Z,72.81
2022-08-05T07:14:08.460Z,78.13
2022-08-05T07:17:59.113Z,73.31
2022-08-05T07:20:23.181Z,74.95
2022-08-05T07:22:30.165Z,80.05
2022-08-05T07:25:22.868Z,75.41
2022-08-05T07:27:58.206Z,74.82
2022-08-05T07:30:34.019Z,76.26
2022-08-05T07:33:05.571Z,72.40
2022-08-05T07:36:03.792Z,73.53
2022-08-05T07:38:33.186Z,71.81
2022-08-05T07:42:07.277Z,69.74
2022-08-05T07:43:52.808Z,70.96
2022-08-05T07:46:26.027Z,70.05
2022-08-05T07:49:03.820Z,72.56
2022-08-05T07:51:40.554Z,70.34
2022-08-05T07:54:10.529Z,71.37
2022-08-05T07:57:01.677Z,73.23
2022-08-05T07:59:38.109Z,67.57
2022-08-05T08:02:15.435Z,71.01
2022-08-05T08:04:44.820Z,66.64
2022-08-05T08:07:13.570Z,68.65
2022-08-05T08:09:41.536Z,65.25
2022-08-05T08:12:20.986Z,68.75
2022-08-05T08:15:02.220Z,69.44
2022-08-05T08:17:30.932Z,69.17
2022-08-05T08:20:22.694Z,67.66
2022-08-05T08:22:52.188Z,69.67
2022-08-05T08:25:26.784Z,68.33
2022-08-05T08:28:11.421Z,67.69
2022-08-05T08:30:50.084Z,67.93
2022-08-05T08:33:19.246Z,69.24
2022-08-05T08:35:53.750Z,68.82
2022-08-05T08:38:32.240Z,71.27
2022-08-05T08:41:07.253Z,65.62
2022-08-05T08:45:25.407Z,69.21
2022-08-05T08:46:28.713Z,64.19
2022-08-05T08:49:06.368Z,67.40
2022-08-05T08:52:04.127Z,64.36
2022-08-05T08:54:36.503Z,62.55
2022-08-05T08:57:11.450Z,61.90
2022-08-05T08:59:41.835Z,58.17
2022-08-05T09:02:18.988Z,60.72
2022-08-05T09:05:15.954Z,56.63
2022-08-05T09:07:40.060Z,58.78
2022-08-05T09:10:27.667Z,56.90
2022-08-05T09:12:56.842Z,61.60
2022-08-05T09:15:37.136Z,58.24
2022-08-05T09:18:09.434Z,54.86
2022-08-05T09:20:38.332Z,52.69
2022-08-05T09:23:19.242Z,53.30
2022-08-05T09:26:01.098Z,52.62
2022-08-05T09:28:32.764Z,51.21
2022-08-05T09:31:18.303Z,53.38
2022-08-05T09:33:53.843Z,57.25
2022-08-05T09:36:27.769Z,57.79
2022-08-05T09:39:03.888Z,52.98
2022-08-05T09:41:58.472Z,52.94
2022-08-05T09:44:40.131Z,55.48
2022-08-05T09:47:15.364Z,55.95
2022-08-05T09:49:55.005Z,59.18
2022-08-05T09:52:31.427Z,59.40
2022-08-05T09:55:55.654Z,60.65
2022-08-05T09:57:49.188Z,61.51
2022-08-05T10:00:25.909Z,60.56
2022-08-05T10:02:58.038Z,60.73
2022-08-05T10:05:32.665Z,56.67
2022-08-05T10:08:35.379Z,56.51
2022-08-05T10:10:54.166Z,58.58
2022-08-05T10:13:47.370Z,57.59
2022-08-05T10:16:41.553Z,55.74
2022-08-05T10:19:23.770Z,53.27
2022-08-05T10:22:01.693Z,53.08
2022-08-05T10:24:29.961Z,53.65
2022-08-05T10:27:01.464Z,52.79
2022-08-05T10:30:41.080Z,51.26
2022-08-05T10:32:54.589Z,49.17
2022-08-05T10:35:10.421Z,50.76
2022-08-05T10:37:45.209Z,50.57
2022-08-05T10:40:28.079Z,52.02
2022-08-05T10:43:02.683Z,49.98
2022-08-05T10:45:40.448Z,49.53
2022-08-05T10:48:40.673Z,49.55
2022-08-05T10:51:23.122Z,50.73
2022-08-05T10:54:00.871Z,52.17
2022-08-05T10:56:31.794Z,47.82
2022-08-05T10:59:07.278Z,54.06
2022-08-05T11:01:54.512Z,50.71
2022-08-05T11:04:26.138Z,51.26
2022-08-05T11:07:08.978Z,51.67
2022-08-05T11:09:46.488Z,51.53
2022-08-05T11:12:54.424Z,55.51
2022-08-05T11:16:00.708Z,58.31
2022-08-05T11:18:27.433Z,61.91
2022-08-05T11:20:59.035Z,58.62
2022-08-05T11:23:33.264Z,59.58
2022-08-05T11:26:09.170Z,52.61
2022-08-05T11:28:47.808Z,54.28
2022-08-05T11:31:57.877Z,49.94
2022-08-05T11:34:37.251Z,47.08
2022-08-05T11:37:06.227Z,45.50
2022-08-05T11:39:55.419Z,47.67
2022-08-05T11:42:30.356Z,49.04
2022-08-05T11:45:03.573Z,49.59
2022-08-05T11:47:48.467Z,50.03
2022-08-05T11:50:17.200Z,49.24
2022-08-05T11:52:46.248Z,49.12
2022-08-05T11:55:17.697Z,48.53
2022-08-05T11:58:09.711Z,49.23
2022-08-05T12:00:37.809Z,46.76
2022-08-05T12:03:29.215Z,45.99
2022-08-05T12:06:05.916Z,47.16
2022-08-05T12:08:49.908Z,49.12
2022-08-05T12:11:21.520Z,46.86
2022-08-05T12:14:03.895Z,49.35
2022-08-05T12:16:34.686Z,49.69
2022-08-05T12:19:08.349Z,48.18
2022-08-05T12:21:39.046Z,46.69
2022-08-05T12:24:09.381Z,47.79
2022-08-05T12:26:38.993Z,46.23
2022-08-05T12:29:16.334Z,46.69
2022-08-05T12:31:49.906Z,47.62
2022-08-05T12:34:23.581Z,45.70
2022-08-05T12:36:53.404Z,43.74
2022-08-05T12:39:21.724Z,44.71
2022-08-05T12:41:58.038Z,44.01
2022-08-05T12:44:33.634Z,43.99
2022-08-05T12:47:03.591Z,45.21
2022-08-05T12:50:04.139Z,44.33
2022-08-05T12:52:35.378Z,44.22
2022-08-05T12:55:22.689Z,43.85
2022-08-05T12:58:50.286Z,44.33
2022-08-05T13:02:00.940Z,44.17
2022-08-05T13:03:33.273Z,45.14
2022-08-05T13:06:01.535Z,46.50
2022-08-05T13:08:32.136Z,46.07
2022-08-05T13:11:01.954Z,44.83
2022-08-05T13:14:06.378Z,46.60
2022-08-05T13:16:20.837Z,44.89
2022-08-05T13:18:57.932Z,44.12
2022-08-05T13:21:28.349Z,43.79
2022-08-05T13:24:08.796Z,42.87
2022-08-05T13:26:37.055Z,43.80
2022-08-05T13:29:05.416Z,42.71
2022-08-05T13:32:04.350Z,44.03
2022-08-05T13:34:26.069Z,43.89
2022-08-05T13:36:54.692Z,44.07
2022-08-05T13:39:24.418Z,42.73
2022-08-05T13:42:14.630Z,45.33
2022-08-05T13:44:45.828Z,43.06
2022-08-05T13:47:35.129Z,44.35
2022-08-05T13:50:06.627Z,44.48
2022-08-05T13:52:37.650Z,45.02
2022-08-05T13:55:08.030Z,44.87
2022-08-05T13:57:50.775Z,44.29
2022-08-05T14:00:26.921Z,44.42
2022-08-05T14:02:57.177Z,45.01
2022-08-05T14:05:29.516Z,44.34
2022-08-05T14:08:21.056Z,45.70
2022-08-05T14:10:59.812Z,45.64
2022-08-05T14:13:44.139Z,44.91
2022-08-05T14:16:16.999Z,46.14
2022-08-05T14:18:46.607Z,45.50
2022-08-05T14:22:07.517Z,46.78
2022-08-05T14:24:02.532Z,44.84
2022-08-05T14:26:38.313Z,45.07
2022-08-05T14:29:16.025Z,45.15
2022-08-05T14:32:03.209Z,44.63
2022-08-05T14:34:35.076Z,44.30
2022-08-05T14:37:04.235Z,45.44
2022-08-05T14:39:50.259Z,44.91
2022-08-05T14:42:22.279Z,45.38
2022-08-05T14:44:50.307Z,44.83
2022-08-05T14:48:02.437Z,44.75
2022-08-05T14:50:17.466Z,44.66
2022-08-05T14:52:57.663Z,45.25
2022-08-05T14:55:38.638Z,45.75
2022-08-05T14:58:10.912Z,44.21
2022-08-05T15:00:59.093Z,44.76
2022-08-05T15:03:33.623Z,45.28
2022-08-05T15:06:14.833Z,45.16
2022-08-05T15:08:58.755Z,46.08
2022-08-05T15:11:52.043Z,45.94
2022-08-05T15:14:35.726Z,45.45
2022-08-05T15:17:45.657Z,45.55
2022-08-05T15:19:58.060Z,48.72
2022-08-05T15:22:28.342Z,47.92
2022-08-05T15:24:56.867Z,48.37
2022-08-05T15:27:25.673Z,47.69
2022-08-05T15:29:56.526Z,51.19
2022-08-05T15:32:27.506Z,50.19
2022-08-05T15:34:57.199Z,46.87
2022-08-05T15:38:32.740Z,48.67
2022-08-05T15:41:04.617Z,48.21
2022-08-05T15:43:10.846Z,48.54
2022-08-05T15:45:45.534Z,48.98
2022-08-05T15:48:15.041Z,50.47
2022-08-05T15:50:43.772Z,48.94
2022-08-05T15:53:13.649Z,50.57
2022-08-05T15:56:03.545Z,48.81
2022-08-05T15:58:35.519Z,47.64
2022-08-05T16:01:17.215Z,49.15
2022-08-05T16:03:48.344Z,49.36
2022-08-05T16:06:19.988Z,49.86
2022-08-05T16:08:50.963Z,50.18
2022-08-05T16:11:40.006Z,49.59
2022-08-05T16:14:08.965Z,50.60
2022-08-05T16:16:37.186Z,50.81
2022-08-05T16:19:05.213Z,50.89
2022-08-05T16:22:00.161Z,50.59
2022-08-05T16:24:41.655Z,55.29
2022-08-05T16:27:15.972Z,51.84
2022-08-05T16:29:50.394Z,53.92
2022-08-05T16:32:28.646Z,54.40
2022-08-05T16:34:58.784Z,53.90
2022-08-05T16:38:15.362Z,55.98
2022-08-05T16:40:29.229Z,55.87
2022-08-05T16:42:59.183Z,58.09
2022-08-05T16:46:06.026Z,60.19
2022-08-05T16:48:25.568Z,62.76
2022-08-05T16:51:01.848Z,61.81
2022-08-05T16:53:32.485Z,61.71
2022-08-05T16:56:18.281Z,66.11
2022-08-05T16:58:49.157Z,65.91
2022-08-05T17:01:18.688Z,66.13
2022-08-05T17:03:47.084Z,68.52
2022-08-05T17:06:16.780Z,66.03
2022-08-05T17:08:53.374Z,70.04
2022-08-05T17:11:23.961Z,70.85
2022-08-05T17:14:05.347Z,72.16
2022-08-05T17:16:36.742Z,73.76
2022-08-05T17:19:07.709Z,73.73
2022-08-05T17:21:39.826Z,73.93
2022-08-05T17:24:30.180Z,76.60
2022-08-05T17:26:57.562Z,77.79
2022-08-05T17:29:39.829Z,81.42
2022-08-05T17:32:11.880Z,82.99
2022-08-05T17:34:47.475Z,83.87
2022-08-05T17:37:29.483Z,86.26
2022-08-05T17:40:10.696Z,88.51
2022-08-05T17:42:42.952Z,90.08
2022-08-05T17:45:21.855Z,93.32
2022-08-05T17:47:54.661Z,95.29
2022-08-05T17:50:28.406Z,94.50
2022-08-05T17:52:59.057Z,96.26
2022-08-05T17:55:38.163Z,98.41
2022-08-05T17:58:11.043Z,99.72
2022-08-05T18:00:45.172Z,100.00
2022-08-05T18:03:39.322Z,100.00
2022-08-05T18:06:10.858Z,100.00
2022-08-05T18:08:44.234Z,100.00
2022-08-05T18:11:24.113Z,94.17
2022-08-05T18:14:01.024Z,93.54
2022-08-05T18:16:33.465Z,89.96
2022-08-05T18:19:01.712Z,87.87
2022-08-05T18:22:08.963Z,89.80
2022-08-05T18:24:17.748Z,92.31
2022-08-05T18:26:45.674Z,88.08
2022-08-05T18:29:16.891Z,86.65
2022-08-05T18:31:46.364Z,84.88
2022-08-05T18:34:17.713Z,90.75
2022-08-05T18:36:49.897Z,89.91
2022-08-05T18:39:42.399Z,90.13
2022-08-05T18:42:19.012Z,94.08
2022-08-05T18:44:49.368Z,96.06
2022-08-05T18:47:26.899Z,98.83
2022-08-05T18:50:13.466Z,98.13
2022-08-05T18:52:51.410Z,99.48
2022-08-05T18:55:20.445Z,96.31
2022-08-05T18:57:52.844Z,96.69
2022-08-05T19:00:27.021Z,92.86
2022-08-05T19:03:04.080Z,88.55
2022-08-05T19:06:11.398Z,88.39
2022-08-05T19:08:22.480Z,84.68
2022-08-05T19:11:04.629Z,86.28
2022-08-05T19:13:36.172Z,86.74
2022-08-05T19:16:22.202Z,84.50
2022-08-05T19:18:56.783Z,84.98
2022-08-05T19:21:27.536Z,82.03
2022-08-05T19:24:05.087Z,81.24
2022-08-05T19:26:54.290Z,82.42
2022-08-05T19:29:23.833Z,82.13
2022-08-05T19:31:55.389Z,83.91
2022-08-05T19:34:26.908Z,83.66
2022-08-05T19:36:54.874Z,85.15
2022-08-05T19:39:23.316Z,89.80
2022-08-05T19:42:06.134Z,91.83
2022-08-05T19:44:45.199Z,95.14
2022-08-05T19:47:16.111Z,99.11
2022-08-05T19:49:48.012Z,99.48
2022-08-05T19:52:30.907Z,100.00
2022-08-05T19:55:06.933Z,99.89
2022-08-05T19:58:06.805Z,97.54
2022-08-05T20:00:37.765Z,93.90
2022-08-05T20:03:09.059Z,90.44
2022-08-05T20:05:50.123Z,94.99
2022-08-05T20:08:18.872Z,98.07
2022-08-05T20:10:49.733Z,100.00
2022-08-05T20:13:29.837Z,97.66
2022-08-05T20:16:06.856Z,100.00
2022-08-05T20:18:36.310Z,98.89
2022-08-05T20:21:06.975Z,97.61
2022-08-05T20:23:40.177Z,95.01
2022-08-05T20:26:19.795Z,93.01
2022-08-05T20:28:50.363Z,95.53
2022-08-05T20:31:21.886Z,96.09
2022-08-05T20:33:51.234Z,95.50
2022-08-05T20:36:21.524Z,95.87
2022-08-05T20:38:54.546Z,96.78
2022-08-05T20:41:44.147Z,97.02
2022-08-05T20:44:18.945Z,98.17
2022-08-05T20:46:57.021Z,99.11
2022-08-05T20:49:26.138Z,99.67
2022-08-05T20:51:57.378Z,100.00
2022-08-05T20:54:43.479Z,100.00
2022-08-05T20:57:21.421Z,100.00
2022-08-05T21:00:21.295Z,100.00
2022-08-05T21:02:51.439Z,100.00
2022-08-05T21:05:20.111Z,100.00
2022-08-05T21:07:52.123Z,100.00
2022-08-05T21:10:21.564Z,100.00
2022-08-05T21:13:08.207Z,100.00
2022-08-05T21:15:38.218Z,100.00
2022-08-05T21:18:06.301Z,100.00
2022-08-05T21:20:35.192Z,100.00
2022-08-05T21:23:05.285Z,100.00
2022-08-05T21:25:34.424Z,100.00
2022-08-05T21:28:02.822Z,100.00
2022-08-05T21:30:31.423Z,100.00
2022-08-05T21:32:59.836Z,100.00
2022-08-05T21:35:55.684Z,100.00
2022-08-05T21:38:20.108Z,100.00
2022-08-05T21:40:48.152Z,100.00
2022-08-05T21:43:24.836Z,100.00
2022-08-05T21:45:56.773Z,100.00
2022-08-05T21:48:28.854Z,100.00
2022-08-05T21:50:57.351Z,100.00
2022-08-05T21:53:27.138Z,100.00
2022-08-05T21:56:04.410Z,100.00
2022-08-05T21:58:34.666Z,100.00
2022-08-05T22:01:05.586Z,100.00
2022-08-05T22:03:52.102Z,100.00
2022-08-05T22:06:35.443Z,100.00
2022-08-05T22:09:15.145Z,100.00
2022-08-05T22:11:48.873Z,100.00
2022-08-05T22:14:33.277Z,100.00
2022-08-05T22:17:06.911Z,100.00
2022-08-05T22:20:03.255Z,100.00
2022-08-05T22:22:27.186Z,100.00
2022-08-05T22:25:21.874Z,100.00
2022-08-05T22:28:08.470Z,100.00
2022-08-05T22:30:55.578Z,100.00
2022-08-05T22:33:57.026Z,100.00
2022-08-05T22:36:14.280Z,100.00
2022-08-05T22:38:42.976Z,100.00
2022-08-05T22:41:12.645Z,100.00
2022-08-05T22:43:43.203Z,100.00
2022-08-05T22:46:13.714Z,100.00
2022-08-05T22:48:51.726Z,100.00
2022-08-05T22:51:23.340Z,100.00
2022-08-05T22:54:07.742Z,100.00
2022-08-05T22:56:39.987Z,100.00
2022-08-05T22:59:45.459Z,100.00
2022-08-05T23:02:05.610Z,100.00
2022-08-05T23:04:36.009Z,100.00
2022-08-05T23:07:04.149Z,100.00
2022-08-05T23:09:58.200Z,100.00
2022-08-05T23:12:24.576Z,100.00
2022-08-05T23:14:52.762Z,100.00
2022-08-05T23:17:34.851Z,100.00
2022-08-05T23:20:10.448Z,100.00
2022-08-05T23:22:47.815Z,100.00
2022-08-05T23:25:51.634Z,100.00
2022-08-05T23:28:07.734Z,100.00
2022-08-05T23:30:39.962Z,100.00
2022-08-05T23:33:22.118Z,100.00
2022-08-05T23:35:56.256Z,100.00
2022-08-05T23:38:26.069Z,100.00
2022-08-05T23:40:54.935Z,100.00
2022-08-05T23:43:37.334Z,100.00
2022-08-05T23:46:20.004Z,100.00
2022-08-05T23:49:01.228Z,100.00
2022-08-05T23:51:53.985Z,100.00
2022-08-05T23:54:25.587Z,100.00
2022-08-05T23:56:55.818Z,100.00
